Wind From: 13-12-2017 10:08 Until: 14-12-2017 06:00 warning for: Wind Level: Yellow info button

Although rather usual in this region, locally or potentially dangerous phenomena are expected. (such as local winds, summer thunderstorms, rising streams or high waves) Be aware and pay attention to the latest weather updates, especially if you carry out activities exposed to weather or close to a stream or shoreline. 


Meteo18 Weather Cam more information Meteo18 Weather Cam


Thunder radar more information blitzortung!


Rain radar more information rain snow radar


Visit our other weather sites:

Template documentation
and downloads

And another site



Weather Underground History page Text

Daily Summary for October 18, 2017 Units:  English    Metric   Both
« Previous Day
Next Day »
Daily Weekly Monthly Yearly Custom
  High: Low: Average:
Temperature: 72.5 °F 47.7 °F 58.5 °F
Dew Point: 55.9 °F 44.4 °F 50.4 °F
Humidity: 90 % 50 % 76 %
Wind Speed: 6 mph 0 mph 0.9 mph
Wind Gust: 9 mph - -
Wind:- - ESE
Pressure: 30 in 29.9 in -
Precipitation: 0 in    
Historical Graphs
 
 
Tabular Data for October 18, 2017
Time Temperature Dew Point Pressure Wind Wind Speed Wind Gust Humidity Rainfall Rate (Hourly)
00:02 54.1 °F 47.5 °F 30 in Calm   3 mph 78 % 0 in
00:12 53.1 °F 46.8 °F 30 in Calm   3 mph 79 % 0 in
00:17 52.2 °F 46.6 °F 30 in Calm   1 mph 81 % 0 in
00:22 51.6 °F 46.6 °F 30 in Calm   1 mph 83 % 0 in
00:27 51.6 °F 46.9 °F 30 in Calm   1 mph 84 % 0 in
00:32 51.8 °F 47.1 °F 30 in Calm   1 mph 84 % 0 in
00:42 51.6 °F 46.9 °F 30 in Calm     84 % 0 in
00:52 51.4 °F 47.1 °F 30 in Calm   1 mph 85 % 0 in
00:57 51.3 °F 46.9 °F 30 in Calm   1 mph 85 % 0 in
01:02 50.9 °F 46.9 °F 30 in Calm   1 mph 86 % 0 in
01:07 51.1 °F 47.1 °F 30 in Calm   1 mph 86 % 0 in
01:12 51.1 °F 47.1 °F 30 in Calm   1 mph 86 % 0 in
01:17 51.1 °F 47.1 °F 30 in NNE 1 mph 1 mph 86 % 0 in
01:22 51.3 °F 47.3 °F 30 in Calm   1 mph 86 % 0 in
01:32 51.3 °F 47.3 °F 30 in Calm   1 mph 86 % 0 in
01:37 51.3 °F 47.3 °F 30 in Calm   1 mph 86 % 0 in
01:42 50.7 °F 46.4 °F 30 in NNE 1 mph 1 mph 85 % 0 in
01:47 50.2 °F 46.2 °F 30 in Calm   2 mph 86 % 0 in
01:52 49.8 °F 46 °F 30 in Calm   2 mph 87 % 0 in
02:02 50.2 °F 46.4 °F 30 in Calm   3 mph 87 % 0 in
02:12 49.8 °F 46 °F 30 in WNW 1 mph 3 mph 87 % 0 in
02:17 49.5 °F 46 °F 30 in Calm   1 mph 88 % 0 in
02:22 49.8 °F 46.8 °F 30 in Calm   1 mph 89 % 0 in
02:27 50.2 °F 46.8 °F 30 in North 1 mph 1 mph 88 % 0 in
02:32 50.4 °F 46.6 °F 30 in Calm   2 mph 87 % 0 in
02:42 50.2 °F 46.4 °F 30 in Calm   2 mph 87 % 0 in
02:47 49.8 °F 46.4 °F 30 in Calm   1 mph 88 % 0 in
02:52 49.6 °F 46.6 °F 30 in WNW 1 mph 1 mph 89 % 0 in
02:57 49.6 °F 46.8 °F 30 in WNW 2 mph 2 mph 90 % 0 in
03:02 49.6 °F 46.8 °F 30 in Calm   2 mph 90 % 0 in
03:12 50.4 °F 47.3 °F 30 in Calm   2 mph 89 % 0 in
03:17 50.4 °F 46.9 °F 30 in Calm   2 mph 88 % 0 in
03:22 50 °F 46.6 °F 30 in Calm     88 % 0 in
03:27 49.6 °F 46.6 °F 30 in Calm   1 mph 89 % 0 in
03:32 49.8 °F 46.9 °F 30 in Calm   1 mph 90 % 0 in
03:37 50 °F 46.9 °F 30 in Calm   1 mph 89 % 0 in
03:42 50.2 °F 47.1 °F 30 in Calm   1 mph 89 % 0 in
03:47 50.2 °F 46.8 °F 30 in Calm   1 mph 88 % 0 in
03:52 49.8 °F 46.4 °F 30 in Calm   1 mph 88 % 0 in
03:57 49.8 °F 46.4 °F 30 in Calm   1 mph 88 % 0 in
04:02 50.2 °F 46.4 °F 30 in Calm   1 mph 87 % 0 in
04:12 50.4 °F 46.6 °F 30 in Calm   1 mph 87 % 0 in
04:17 50.5 °F 46.6 °F 30 in Calm     86 % 0 in
04:22 50.5 °F 46.2 °F 30 in North 1 mph   85 % 0 in
04:27 50.4 °F 46.4 °F 30 in Calm     86 % 0 in
04:32 50.5 °F 46.6 °F 30 in Calm   1 mph 86 % 0 in
04:37 50.4 °F 46.4 °F 30 in Calm   1 mph 86 % 0 in
04:42 50.2 °F 46.2 °F 30 in Calm   1 mph 86 % 0 in
04:47 49.8 °F 46 °F 30 in Calm   1 mph 87 % 0 in
04:52 49.8 °F 46 °F 30 in North 1 mph 1 mph 87 % 0 in
05:02 50 °F 46.2 °F 30 in Calm   1 mph 87 % 0 in
05:27 49.8 °F 45.9 °F 30 in Calm   1 mph 86 % 0 in
05:32 50.4 °F 45.3 °F 30 in Calm   1 mph 83 % 0 in
05:37 49.6 °F 45 °F 30 in Calm   1 mph 84 % 0 in
05:42 49.3 °F 45.3 °F 30 in Calm   1 mph 86 % 0 in
05:47 49.3 °F 45.3 °F 30 in Calm   1 mph 86 % 0 in
05:57 49.3 °F 45.3 °F 30 in Calm   1 mph 86 % 0 in
06:02 48.9 °F 45 °F 30 in Calm   1 mph 86 % 0 in
06:07 49.5 °F 45.5 °F 30 in Calm   2 mph 86 % 0 in
06:12 48.9 °F 45 °F 30 in Calm   2 mph 86 % 0 in
06:17 48.4 °F 44.8 °F 30 in NW 1 mph 2 mph 87 % 0 in
06:22 48.6 °F 45.1 °F 30 in Calm   2 mph 88 % 0 in
06:32 47.8 °F 44.8 °F 30 in Calm   2 mph 89 % 0 in
06:42 48.2 °F 44.8 °F 30 in WNW 1 mph 2 mph 88 % 0 in
06:47 47.8 °F 44.8 °F 30 in Calm   1 mph 89 % 0 in
06:52 48.4 °F 45 °F 30 in North 1 mph 1 mph 88 % 0 in
06:57 48.2 °F 44.8 °F 30 in Calm   1 mph 88 % 0 in
07:02 48 °F 44.4 °F 30 in Calm   1 mph 87 % 0 in
07:07 47.8 °F 44.4 °F 30 in Calm   1 mph 88 % 0 in
07:12 47.8 °F 44.8 °F 30 in Calm   1 mph 89 % 0 in
07:17 48 °F 44.6 °F 30 in Calm   1 mph 88 % 0 in
07:22 47.8 °F 44.8 °F 30 in NW 1 mph 1 mph 89 % 0 in
07:32 48.4 °F 44.4 °F 30 in Calm   1 mph 86 % 0 in
07:42 47.8 °F 44.8 °F 30 in Calm   1 mph 89 % 0 in
07:47 47.7 °F 45 °F 30 in North 1 mph 1 mph 90 % 0 in
07:52 48 °F 45 °F 30 in Calm   1 mph 89 % 0 in
07:57 48 °F 45 °F 30 in Calm   1 mph 89 % 0 in
08:02 48 °F 45 °F 30 in Calm   1 mph 89 % 0 in
08:07 48 °F 45 °F 30 in Calm   1 mph 89 % 0 in
08:12 47.8 °F 44.4 °F 30 in Calm   1 mph 88 % 0 in
08:22 47.7 °F 44.6 °F 30 in Calm   1 mph 89 % 0 in
08:32 47.8 °F 45 °F 30 in Calm   2 mph 90 % 0 in
08:37 48 °F 45.1 °F 30 in Calm   1 mph 90 % 0 in
08:42 48.4 °F 45.5 °F 30 in Calm   1 mph 90 % 0 in
08:47 48.7 °F 45.7 °F 30 in Calm   1 mph 89 % 0 in
08:52 48.9 °F 45.5 °F 30 in Calm   1 mph 88 % 0 in
09:02 49.5 °F 46 °F 30 in Calm   1 mph 88 % 0 in
09:12 49.8 °F 46 °F 30 in Calm   1 mph 87 % 0 in
09:17 50 °F 46.9 °F 30 in Calm   1 mph 89 % 0 in
09:22 50.5 °F 47.1 °F 30 in Calm   1 mph 88 % 0 in
09:32 52.2 °F 48 °F 30 in Calm     86 % 0 in
09:42 54 °F 48.2 °F 30 in Calm     81 % 0 in
09:47 54.3 °F 48 °F 30 in Calm   1 mph 79 % 0 in
09:52 55 °F 48 °F 30 in Calm   1 mph 77 % 0 in
10:02 56.1 °F 48.7 °F 30 in Calm   1 mph 76 % 0 in
10:07 56.3 °F 48.6 °F 30 in East 2 mph 2 mph 75 % 0 in
10:12 56.1 °F 48 °F 30 in Calm   1 mph 74 % 0 in
10:17 56.7 °F 48.4 °F 30 in Calm   3 mph 74 % 0 in
10:22 57.2 °F 48.9 °F 30 in Calm   3 mph 74 % 0 in
10:32 58.3 °F 48.9 °F 30 in South 1 mph 2 mph 71 % 0 in
10:42 58.1 °F 49.5 °F 30 in Calm   2 mph 73 % 0 in
10:52 58.8 °F 49.8 °F 30 in Calm   3 mph 72 % 0 in
11:02 59.4 °F 50 °F 30 in SSE 1 mph 2 mph 71 % 0 in
11:07 59.5 °F 50.2 °F 30 in SE 1 mph 4 mph 71 % 0 in
11:12 60.1 °F 50.7 °F 30 in Calm   4 mph 71 % 0 in
11:17 60.6 °F 51.1 °F 30 in SE 1 mph 3 mph 71 % 0 in
11:22 61.2 °F 51.3 °F 30 in SE 1 mph 3 mph 70 % 0 in
11:32 61.3 °F 51.4 °F 30 in Calm   2 mph 70 % 0 in
11:42 62.2 °F 52.7 °F 30 in Calm   3 mph 71 % 0 in
11:52 63.1 °F 52.3 °F 30 in South 2 mph 3 mph 68 % 0 in
11:57 63.9 °F 53.1 °F 30 in SSE 1 mph 4 mph 68 % 0 in
12:02 64.6 °F 53.4 °F 30 in Calm   4 mph 67 % 0 in
12:07 64.8 °F 52.7 °F 30 in SSW 4 mph 5 mph 65 % 0 in
12:12 64.8 °F 53.6 °F 30 in SSW 2 mph 5 mph 67 % 0 in
12:17 65.3 °F 53.6 °F 30 in SSW 1 mph 6 mph 66 % 0 in
12:22 65.7 °F 53.2 °F 30 in Calm   6 mph 64 % 0 in
12:32 66.4 °F 53.4 °F 30 in SE 2 mph 6 mph 63 % 0 in
12:42 66.9 °F 54 °F 30 in Calm   5 mph 63 % 0 in
12:47 67.5 °F 54 °F 30 in Calm   7 mph 62 % 0 in
12:52 67.5 °F 54 °F 30 in NNE 3 mph 7 mph 62 % 0 in
12:57 67.5 °F 54 °F 30 in Calm   5 mph 62 % 0 in
13:02 67.6 °F 54.7 °F 30 in Calm   5 mph 63 % 0 in
13:07 68.4 °F 54.3 °F 30 in Calm   4 mph 61 % 0 in
13:12 68.5 °F 54.1 °F 30 in Calm   4 mph 60 % 0 in
13:17 68.7 °F 54.3 °F 30 in Calm   4 mph 60 % 0 in
13:22 69.1 °F 54.1 °F 30 in Calm   4 mph 59 % 0 in
13:32 69.3 °F 54.3 °F 29.9 in ENE 1 mph 4 mph 59 % 0 in
13:42 69.3 °F 53.8 °F 29.9 in ESE 3 mph 3 mph 58 % 0 in
13:47 68.7 °F 53.8 °F 29.9 in ENE 4 mph 4 mph 59 % 0 in
13:57 69.3 °F 54.9 °F 29.9 in Calm   5 mph 60 % 0 in
14:02 69.6 °F 54.1 °F 29.9 in ESE 2 mph 5 mph 58 % 0 in
14:12 70 °F 54 °F 29.9 in Calm   4 mph 57 % 0 in
14:17 71.1 °F 54.1 °F 29.9 in Calm   4 mph 55 % 0 in
14:22 71.1 °F 54.5 °F 29.9 in Calm   4 mph 56 % 0 in
14:32 71.8 °F 54.7 °F 29.9 in NE 1 mph 5 mph 55 % 0 in
14:42 72.1 °F 55 °F 29.9 in ESE 3 mph 5 mph 55 % 0 in
14:52 72.1 °F 54.5 °F 29.9 in SE 2 mph 7 mph 54 % 0 in
15:02 72.3 °F 54.7 °F 29.9 in ESE 1 mph 7 mph 54 % 0 in
15:07 72.1 °F 53.6 °F 29.9 in Calm   6 mph 52 % 0 in
15:12 72.3 °F 53.2 °F 29.9 in Calm   6 mph 51 % 0 in
15:17 72.5 °F 54 °F 29.9 in SE 1 mph 4 mph 52 % 0 in
15:22 72.1 °F 53.6 °F 29.9 in Calm   4 mph 52 % 0 in
15:32 72 °F 52.3 °F 29.9 in ESE 4 mph 4 mph 50 % 0 in
15:42 72 °F 54.3 °F 29.9 in ENE 4 mph 4 mph 54 % 0 in
15:52 71.2 °F 54.7 °F 29.9 in ESE 5 mph 8 mph 56 % 0 in
16:02 70.9 °F 54.3 °F 29.9 in SSE 3 mph 8 mph 56 % 0 in
16:12 71.1 °F 55 °F 29.9 in ESE 2 mph 7 mph 57 % 0 in
16:17 70.9 °F 54.9 °F 29.9 in East 3 mph 9 mph 57 % 0 in
16:22 70.7 °F 55.2 °F 29.9 in SE 5 mph 9 mph 58 % 0 in
16:32 70.5 °F 55 °F 29.9 in ENE 2 mph 9 mph 58 % 0 in
16:42 70.9 °F 55.4 °F 29.9 in ESE 3 mph 6 mph 58 % 0 in
16:47 71.1 °F 55 °F 29.9 in ENE 5 mph 7 mph 57 % 0 in
16:52 71.1 °F 55.6 °F 29.9 in East 2 mph 7 mph 58 % 0 in
17:02 71.4 °F 55.9 °F 29.9 in East 3 mph 7 mph 58 % 0 in
17:12 71.4 °F 54.9 °F 29.9 in East 2 mph 6 mph 56 % 0 in
17:17 71.2 °F 54.7 °F 29.9 in ENE 3 mph 5 mph 56 % 0 in
17:22 71.4 °F 54.9 °F 29.9 in ENE 1 mph 5 mph 56 % 0 in
17:32 71.1 °F 55 °F 29.9 in East 1 mph 6 mph 57 % 0 in
17:42 70.5 °F 55 °F 29.9 in ESE 1 mph 6 mph 58 % 0 in
17:52 70.2 °F 55.2 °F 29.9 in East 1 mph 4 mph 59 % 0 in
17:57 70.2 °F 55.2 °F 29.9 in East 1 mph 4 mph 59 % 0 in
18:02 69.8 °F 54.9 °F 29.9 in ENE 3 mph 4 mph 59 % 0 in
18:12 69.4 °F 54.9 °F 29.9 in Calm   4 mph 60 % 0 in
18:17 69.3 °F 55.2 °F 29.9 in East 3 mph 5 mph 61 % 0 in
18:22 69.3 °F 55.2 °F 29.9 in Calm   5 mph 61 % 0 in
18:32 69.1 °F 55 °F 29.9 in East 1 mph 6 mph 61 % 0 in
18:42 68.5 °F 55 °F 29.9 in East 4 mph 5 mph 62 % 0 in
18:52 68.2 °F 55 °F 29.9 in East 1 mph 4 mph 63 % 0 in
18:57 67.8 °F 55.2 °F 29.9 in ENE 2 mph 5 mph 64 % 0 in
19:02 67.5 °F 55.2 °F 29.9 in ENE 1 mph 5 mph 65 % 0 in
19:12 66.7 °F 55 °F 29.9 in ENE 1 mph 5 mph 66 % 0 in
19:17 66.4 °F 55 °F 29.9 in NE 2 mph 5 mph 67 % 0 in
19:22 66 °F 55.2 °F 29.9 in ENE 2 mph 5 mph 68 % 0 in
19:32 65.5 °F 55 °F 29.9 in NE 3 mph 4 mph 69 % 0 in
19:37 65.1 °F 54.7 °F 29.9 in NE 3 mph 4 mph 69 % 0 in
19:42 64.9 °F 54.9 °F 29.9 in ENE 3 mph 5 mph 70 % 0 in
19:47 64.6 °F 54.5 °F 29.9 in ENE 3 mph 5 mph 70 % 0 in
19:52 64.2 °F 54.7 °F 29.9 in ENE 1 mph 5 mph 71 % 0 in
20:02 63.9 °F 54.3 °F 29.9 in NE 4 mph 5 mph 71 % 0 in
20:12 64 °F 54.5 °F 29.9 in ENE 3 mph 5 mph 71 % 0 in
20:17 63.9 °F 54.3 °F 29.9 in NE 3 mph 5 mph 71 % 0 in
20:22 63.3 °F 54.1 °F 29.9 in NE 2 mph 5 mph 72 % 0 in
20:32 63.1 °F 54.3 °F 29.9 in ENE 2 mph 5 mph 73 % 0 in
20:37 63 °F 54.1 °F 29.9 in ENE 2 mph 5 mph 73 % 0 in
20:42 62.8 °F 54.3 °F 29.9 in ENE 4 mph 5 mph 74 % 0 in
20:47 62.8 °F 54.3 °F 29.9 in Calm   5 mph 74 % 0 in
20:52 62.8 °F 54.3 °F 29.9 in ENE 4 mph 6 mph 74 % 0 in
20:57 62.4 °F 54 °F 29.9 in ENE 4 mph 6 mph 74 % 0 in
21:07 62.6 °F 54.1 °F 29.9 in ENE 6 mph 7 mph 74 % 0 in
21:12 62.8 °F 54.3 °F 29.9 in ENE 5 mph 7 mph 74 % 0 in
21:22 62.4 °F 54.3 °F 29.9 in ESE 1 mph 7 mph 75 % 0 in
21:27 62.4 °F 54.3 °F 29.9 in East 3 mph 7 mph 75 % 0 in
21:32 62.2 °F 54.1 °F 29.9 in East 1 mph 5 mph 75 % 0 in
21:37 62.1 °F 54 °F 29.9 in Calm   4 mph 75 % 0 in
21:42 61.9 °F 54.3 °F 29.9 in Calm   4 mph 76 % 0 in
21:47 61.3 °F 53.8 °F 29.9 in Calm   3 mph 76 % 0 in
21:57 60.1 °F 53.6 °F 29.9 in Calm   1 mph 79 % 0 in
22:02 60.3 °F 53.8 °F 29.9 in Calm   1 mph 79 % 0 in
22:12 61 °F 54.1 °F 29.9 in NE 1 mph 2 mph 78 % 0 in
22:17 61 °F 54.1 °F 29.9 in Calm   2 mph 78 % 0 in
22:22 61 °F 54.1 °F 29.9 in Calm   2 mph 78 % 0 in
22:32 60.4 °F 54 °F 29.9 in East 1 mph 2 mph 79 % 0 in
22:37 60.4 °F 54 °F 29.9 in Calm   3 mph 79 % 0 in
22:44 60.1 °F 53.6 °F 29.9 in Calm   3 mph 79 % 0 in
22:56 59.5 °F 53.8 °F 29.9 in Calm   1 mph 81 % 0 in
23:02 58.5 °F 53.1 °F 29.9 in Calm   1 mph 82 % 0 in
23:12 58.5 °F 53.1 °F 29.9 in Calm   1 mph 82 % 0 in
23:17 58.6 °F 53.4 °F 29.9 in Calm   1 mph 83 % 0 in
23:22 59.5 °F 54 °F 29.9 in Calm   2 mph 82 % 0 in
23:27 59.5 °F 53.8 °F 29.9 in Calm   2 mph 81 % 0 in
23:32 59.2 °F 53.4 °F 29.9 in Calm   2 mph 81 % 0 in
23:42 58.3 °F 53.1 °F 29.9 in Calm   2 mph 83 % 0 in
23:47 58.1 °F 52.9 °F 29.9 in Calm   2 mph 83 % 0 in
23:52 57.6 °F 52.5 °F 29.9 in Calm   2 mph 83 % 0 in
23:57 57.6 °F 53.1 °F 29.9 in Calm   1 mph 85 % 0 in
Meteo18
Compliments of Weather Underground - 4 mb

Script developed by  Jim McMurry - jmcmurry@mwt.net Adapted for the template by  Wim van der Kuil - Leuven-Template.eu

You find our weather info also at:

European Weather Network

Weather Underground

Equipment we use:

Weather-station
Davis Vue

Weather-program
Meteohub

Weather-server
Raspberry PI 2 B+

Provider
1 and 1

Davis Vue

Meteohub

Raspberry PI 2 B+

1 and 1